Terminal Aerodrome Forecast
Issued by NWS

Home | Current Version | Previous Version | Text Only | Print | Product List | Glossary On
Versions: 1 2 3 4 5 6 7 8 9 10 11 12 13 14 15 16
000
FTAK31 PAJN 281700
TAFAJN
TAF
PAJN 281720Z 2818/2918 09007KT P6SM VCFG FEW005 SCT060
     FM282100 09008KT P6SM VCSH BKN035 OVC060
     FM290000 09008KT P6SM -RA BKN035 OVC060
     FM290300 10015KT 4SM RA BR BKN025 OVC035
     FM290800 09008KT P6SM -SHRA SCT025 OVC035=

USA.gov is the U.S. government's official web portal to all federal, state and local government web resources and services.